createdAt,value
2018-09-04T00:00:49.729Z,16.25
2018-09-04T00:02:50.746Z,16.25
2018-09-04T00:04:50.191Z,16.25
2018-09-04T00:06:50.424Z,16.26
2018-09-04T00:08:50.540Z,16.28
2018-09-04T00:10:50.522Z,16.28
2018-09-04T00:14:50.498Z,16.28
2018-09-04T00:16:50.619Z,16.28
2018-09-04T00:18:50.725Z,16.29
2018-09-04T00:20:49.738Z,16.29
2018-09-04T00:22:49.848Z,16.30
2018-09-04T00:24:49.814Z,16.29
2018-09-04T00:26:50.004Z,16.29
2018-09-04T00:28:50.116Z,16.30
2018-09-04T00:30:50.064Z,16.30
2018-09-04T00:32:50.027Z,16.30
2018-09-04T00:34:50.366Z,16.28
2018-09-04T00:36:50.524Z,16.29
2018-09-04T00:38:50.529Z,16.27
2018-09-04T00:40:50.521Z,16.25
2018-09-04T00:42:50.493Z,16.25
2018-09-04T00:44:50.416Z,16.23
2018-09-04T00:46:50.581Z,16.21
2018-09-04T00:48:50.511Z,16.18
2018-09-04T00:50:50.531Z,16.18
2018-09-04T00:52:50.572Z,16.15
2018-09-04T00:54:50.557Z,16.10
2018-09-04T00:56:49.776Z,16.07
2018-09-04T00:58:49.834Z,16.03
2018-09-04T01:00:49.978Z,16.02
2018-09-04T01:02:50.080Z,16.01
2018-09-04T01:04:50.336Z,15.99
2018-09-04T01:06:50.432Z,15.97
2018-09-04T01:08:50.512Z,15.97
2018-09-04T01:10:50.563Z,15.93
2018-09-04T01:12:50.565Z,15.90
2018-09-04T01:14:50.634Z,15.91
2018-09-04T01:16:49.810Z,15.88
2018-09-04T01:18:49.852Z,15.88
2018-09-04T01:20:49.865Z,15.87
2018-09-04T01:22:49.871Z,15.86
2018-09-04T01:24:50.034Z,15.85
2018-09-04T01:26:50.225Z,15.85
2018-09-04T01:28:50.195Z,15.86
2018-09-04T01:30:50.165Z,15.87
2018-09-04T01:32:50.285Z,15.88
2018-09-04T01:34:50.529Z,15.87
2018-09-04T01:36:49.745Z,15.88
2018-09-04T01:38:49.728Z,15.89
2018-09-04T01:40:49.821Z,15.89
2018-09-04T01:42:49.803Z,15.89
2018-09-04T01:44:49.841Z,15.89
2018-09-04T01:46:50.083Z,15.88
2018-09-04T01:48:50.068Z,15.87
2018-09-04T01:50:50.222Z,15.86
2018-09-04T01:52:50.364Z,15.86
2018-09-04T01:54:50.548Z,15.87
2018-09-04T01:56:49.749Z,15.87
2018-09-04T01:58:49.892Z,15.89
2018-09-04T02:00:49.871Z,15.88
2018-09-04T02:02:49.938Z,15.88
2018-09-04T02:04:50.234Z,15.88
2018-09-04T02:06:50.484Z,15.87
2018-09-04T02:08:50.497Z,15.88
2018-09-04T02:10:50.468Z,15.88
2018-09-04T02:12:49.700Z,15.88
2018-09-04T02:14:49.813Z,15.89
2018-09-04T02:16:50.006Z,15.90
2018-09-04T02:18:50.019Z,15.88
2018-09-04T02:20:50.054Z,15.88
2018-09-04T02:22:49.993Z,15.90
2018-09-04T02:24:49.967Z,15.93
2018-09-04T02:26:50.138Z,15.94
2018-09-04T02:28:50.138Z,15.94
2018-09-04T02:30:50.382Z,15.93
2018-09-04T02:32:50.373Z,15.92
2018-09-04T02:34:49.778Z,15.92
2018-09-04T02:36:50.015Z,15.96
2018-09-04T02:38:50.094Z,15.97
2018-09-04T02:40:50.160Z,15.96
2018-09-04T02:42:50.182Z,15.95
2018-09-04T02:44:50.303Z,15.95
2018-09-04T02:46:50.371Z,15.96
2018-09-04T02:48:50.480Z,15.96
2018-09-04T02:50:49.704Z,15.96
2018-09-04T02:52:50.639Z,15.96
2018-09-04T02:54:50.684Z,15.96
2018-09-04T02:56:49.840Z,15.95
2018-09-04T02:58:49.989Z,15.94
2018-09-04T03:00:49.974Z,15.94
2018-09-04T03:02:49.984Z,15.95
2018-09-04T03:04:50.301Z,15.94
2018-09-04T03:06:50.409Z,15.92
2018-09-04T03:08:50.374Z,15.89
2018-09-04T03:10:50.387Z,15.86
2018-09-04T03:12:50.309Z,15.85
2018-09-04T03:14:50.268Z,15.85
2018-09-04T03:16:50.371Z,15.85
2018-09-04T03:18:50.427Z,15.84
2018-09-04T03:20:50.412Z,15.82
2018-09-04T03:22:50.506Z,15.82
2018-09-04T03:24:50.510Z,15.82
2018-09-04T03:26:50.663Z,15.77
2018-09-04T03:28:50.663Z,15.77
2018-09-04T03:30:50.643Z,15.77
2018-09-04T03:32:49.692Z,15.74
2018-09-04T03:34:50.210Z,15.75
2018-09-04T03:36:50.366Z,15.73
2018-09-04T03:38:50.388Z,15.74
2018-09-04T03:40:50.483Z,15.74
2018-09-04T03:42:50.487Z,15.72
2018-09-04T03:44:50.458Z,15.72
2018-09-04T03:46:50.658Z,15.71
2018-09-04T03:48:50.570Z,15.71
2018-09-04T03:50:50.644Z,15.71
2018-09-04T03:52:49.752Z,15.72
2018-09-04T03:54:49.736Z,15.70
2018-09-04T03:56:50.034Z,15.69
2018-09-04T03:58:50.015Z,15.67
2018-09-04T04:00:49.994Z,15.66
2018-09-04T04:02:50.209Z,15.65
2018-09-04T04:04:50.484Z,15.64
2018-09-04T04:06:49.881Z,15.64
2018-09-04T04:08:50.019Z,15.66
2018-09-04T04:10:50.041Z,15.65
2018-09-04T04:12:50.096Z,15.65
2018-09-04T04:14:50.073Z,15.65
2018-09-04T04:16:50.182Z,15.66
2018-09-04T04:18:50.265Z,15.68
2018-09-04T04:20:50.267Z,15.68
2018-09-04T04:22:50.236Z,15.68
2018-09-04T04:24:50.233Z,15.69
2018-09-04T04:26:49.925Z,15.68
2018-09-04T04:28:49.983Z,15.66
2018-09-04T04:30:49.993Z,15.63
2018-09-04T04:32:50.052Z,15.63
2018-09-04T04:34:50.382Z,15.62
2018-09-04T04:36:50.503Z,15.62
2018-09-04T04:38:50.503Z,15.60
2018-09-04T04:40:50.598Z,15.60
2018-09-04T04:42:50.669Z,15.60
2018-09-04T04:44:50.680Z,15.63
2018-09-04T04:46:49.893Z,15.64
2018-09-04T04:48:49.973Z,15.64
2018-09-04T04:50:49.975Z,15.66
2018-09-04T04:52:50.045Z,15.64
2018-09-04T04:54:50.014Z,15.63
2018-09-04T04:56:50.226Z,15.62
2018-09-04T04:58:50.215Z,15.64
2018-09-04T05:00:50.247Z,15.67
2018-09-04T05:02:50.181Z,15.66
2018-09-04T05:04:50.475Z,15.62
2018-09-04T05:06:49.790Z,15.61
2018-09-04T05:08:49.789Z,15.61
2018-09-04T05:10:49.821Z,15.63
2018-09-04T05:12:49.851Z,15.68
2018-09-04T05:14:49.847Z,15.70
2018-09-04T05:16:50.106Z,15.74
2018-09-04T05:18:50.202Z,15.76
2018-09-04T05:20:50.161Z,15.76
2018-09-04T05:22:50.568Z,15.77
2018-09-04T05:24:50.575Z,15.79
2018-09-04T05:26:49.722Z,15.79
2018-09-04T05:28:49.726Z,15.78
2018-09-04T05:30:50.659Z,15.81
2018-09-04T05:32:49.804Z,15.82
2018-09-04T05:34:50.129Z,15.84
2018-09-04T05:36:50.496Z,15.84
2018-09-04T05:38:49.759Z,15.87
2018-09-04T05:40:49.852Z,15.91
2018-09-04T05:42:49.843Z,15.95
2018-09-04T05:44:49.893Z,15.96
2018-09-04T05:46:50.206Z,15.99
2018-09-04T05:48:50.270Z,16.00
2018-09-04T05:50:50.328Z,16.04
2018-09-04T05:52:50.406Z,16.00
2018-09-04T05:54:50.555Z,16.00
2018-09-04T05:56:49.848Z,16.04
2018-09-04T05:58:49.878Z,16.07
2018-09-04T06:00:49.921Z,16.08
2018-09-04T06:02:49.935Z,16.14
2018-09-04T06:04:50.207Z,16.20
2018-09-04T06:06:50.521Z,16.25
2018-09-04T06:08:50.631Z,16.26
2018-09-04T06:10:50.664Z,16.28
2018-09-04T06:12:50.714Z,16.28
2018-09-04T06:14:49.708Z,16.43
2018-09-04T06:16:49.799Z,16.48
2018-09-04T06:18:49.844Z,16.53
2018-09-04T06:20:49.914Z,16.49
2018-09-04T06:22:49.909Z,16.46
2018-09-04T06:24:49.944Z,16.45
2018-09-04T06:26:50.048Z,16.45
2018-09-04T06:28:50.029Z,16.34
2018-09-04T06:30:50.014Z,16.39
2018-09-04T06:32:50.015Z,16.37
2018-09-04T06:34:50.431Z,16.34
2018-09-04T06:36:51.089Z,16.33
2018-09-04T06:38:50.184Z,16.30
2018-09-04T06:40:50.236Z,16.27
2018-09-04T06:42:50.190Z,16.21
2018-09-04T06:44:50.142Z,16.18
2018-09-04T06:46:50.239Z,16.18
2018-09-04T06:48:50.292Z,16.27
2018-09-04T06:50:50.265Z,16.31
2018-09-04T06:52:50.276Z,16.33
2018-09-04T06:54:50.371Z,16.32
2018-09-04T06:56:50.495Z,16.26
2018-09-04T06:58:50.522Z,16.24
2018-09-04T07:00:50.482Z,16.20
2018-09-04T07:02:50.515Z,16.18
2018-09-04T07:04:49.953Z,16.17
2018-09-04T07:06:50.125Z,16.21
2018-09-04T07:08:50.085Z,16.23
2018-09-04T07:10:50.110Z,16.26
2018-09-04T07:12:50.055Z,16.24
2018-09-04T07:14:50.077Z,16.21
2018-09-04T07:16:50.447Z,16.24
2018-09-04T07:18:50.430Z,16.27
2018-09-04T07:20:50.512Z,16.28
2018-09-04T07:22:50.507Z,16.24
2018-09-04T07:24:50.493Z,16.24
2018-09-04T07:26:49.828Z,16.23
2018-09-04T07:28:49.879Z,16.21
2018-09-04T07:30:49.890Z,16.23
2018-09-04T07:32:49.980Z,16.24
2018-09-04T07:34:50.442Z,16.27
2018-09-04T07:36:50.562Z,16.26
2018-09-04T07:38:50.700Z,16.26
2018-09-04T07:40:50.643Z,16.27
2018-09-04T07:42:49.742Z,16.29
2018-09-04T07:44:49.710Z,16.34
2018-09-04T07:46:49.880Z,16.38
2018-09-04T07:48:49.964Z,16.39
2018-09-04T07:50:49.887Z,16.39
2018-09-04T07:52:49.870Z,16.42
2018-09-04T07:54:49.914Z,16.44
2018-09-04T07:56:49.981Z,16.50
2018-09-04T07:58:49.958Z,16.54
2018-09-04T08:00:50.171Z,16.71
2018-09-04T08:02:50.192Z,16.81
2018-09-04T08:04:50.605Z,16.83
2018-09-04T08:06:49.726Z,16.88
2018-09-04T08:08:49.703Z,16.97
2018-09-04T08:10:49.788Z,16.97
2018-09-04T08:12:49.809Z,17.00
2018-09-04T08:14:49.885Z,17.03
2018-09-04T08:16:50.090Z,17.27
2018-09-04T08:18:50.071Z,17.37
2018-09-04T08:20:50.712Z,17.45
2018-09-04T08:22:49.937Z,17.54
2018-09-04T08:24:49.952Z,17.57
2018-09-04T08:26:50.041Z,17.56
2018-09-04T08:28:50.120Z,17.63
2018-09-04T08:30:50.130Z,17.72
2018-09-04T08:32:50.371Z,17.75
2018-09-04T08:34:49.875Z,17.74
2018-09-04T08:36:50.118Z,17.73
2018-09-04T08:38:50.188Z,17.69
2018-09-04T08:40:50.250Z,17.73
2018-09-04T08:42:50.255Z,17.78
2018-09-04T08:44:50.317Z,17.86
2018-09-04T08:46:50.442Z,17.87
2018-09-04T08:48:50.439Z,17.84
2018-09-04T08:50:50.521Z,17.84
2018-09-04T08:52:49.693Z,17.88
2018-09-04T08:54:49.708Z,17.93
2018-09-04T08:56:49.846Z,17.95
2018-09-04T08:58:50.001Z,18.08
2018-09-04T09:00:49.990Z,18.19
2018-09-04T09:02:49.996Z,18.18
2018-09-04T09:04:50.313Z,18.27
2018-09-04T09:06:50.453Z,18.30
2018-09-04T09:08:50.484Z,18.32
2018-09-04T09:10:50.480Z,18.35
2018-09-04T09:12:50.511Z,18.38
2018-09-04T09:14:50.485Z,18.43
2018-09-04T09:16:51.269Z,18.48
2018-09-04T09:18:50.402Z,18.51
2018-09-04T09:20:50.422Z,18.56
2018-09-04T09:22:50.843Z,18.60
2018-09-04T09:24:49.916Z,18.57
2018-09-04T09:26:50.252Z,18.58
2018-09-04T09:28:50.202Z,18.63
2018-09-04T09:30:50.294Z,18.67
2018-09-04T09:32:50.297Z,18.98
2018-09-04T09:34:50.589Z,19.15
2018-09-04T09:36:50.904Z,19.4
2018-09-04T09:38:50.266Z,19.66
2018-09-04T09:40:50.294Z,19.7
2018-09-04T09:42:50.280Z,19.8
2018-09-04T09:44:50.277Z,20.0
2018-09-04T09:46:49.753Z,20.2
2018-09-04T09:48:49.751Z,20.2
2018-09-04T09:50:50.467Z,20.3
2018-09-04T09:52:50.130Z,20.4
2018-09-04T09:54:49.777Z,20.5
2018-09-04T09:56:50.054Z,20.6
2018-09-04T09:58:50.052Z,20.6
2018-09-04T10:00:49.984Z,20.8
2018-09-04T10:02:50.016Z,20.9
2018-09-04T10:04:50.407Z,21.1
2018-09-04T10:06:50.680Z,21.3
2018-09-04T10:08:49.795Z,21.3
2018-09-04T10:10:49.872Z,21.4
2018-09-04T10:12:49.875Z,21.5
2018-09-04T10:14:49.906Z,21.5
2018-09-04T10:16:50.001Z,21.5
2018-09-04T10:18:49.920Z,21.6
2018-09-04T10:20:49.911Z,21.60
2018-09-04T10:22:49.927Z,21.42
2018-09-04T10:24:49.889Z,21.42
2018-09-04T10:26:49.986Z,21.9
2018-09-04T10:28:49.945Z,21.9
2018-09-04T10:30:49.956Z,22.1
2018-09-04T10:32:50.043Z,22.2
2018-09-04T10:34:50.251Z,22.3
2018-09-04T10:36:50.480Z,22.3
2018-09-04T10:38:50.522Z,22.3
2018-09-04T10:40:50.421Z,22.3
2018-09-04T10:42:50.379Z,22.3
2018-09-04T10:44:50.337Z,22.4
2018-09-04T10:46:50.517Z,22.4
2018-09-04T10:48:50.588Z,22.40
2018-09-04T10:50:50.560Z,22.02
2018-09-04T10:52:50.595Z,22.02
2018-09-04T10:54:50.635Z,22.27
2018-09-04T10:56:49.855Z,22.3
2018-09-04T10:58:49.912Z,22.3
2018-09-04T11:00:49.851Z,22.3
2018-09-04T11:02:49.883Z,22.3
2018-09-04T11:04:50.305Z,22.3
2018-09-04T11:06:50.440Z,22.4
2018-09-04T11:08:50.410Z,22.4
2018-09-04T11:10:50.404Z,22.6
2018-09-04T11:12:50.420Z,22.6
2018-09-04T11:14:50.451Z,22.6
2018-09-04T11:16:50.568Z,22.6
2018-09-04T11:18:50.533Z,22.8
2018-09-04T11:20:50.577Z,22.8
2018-09-04T11:22:50.506Z,23.0
2018-09-04T11:24:50.534Z,23.0
2018-09-04T11:26:50.702Z,23.1
2018-09-04T11:28:50.682Z,23.2
2018-09-04T11:30:50.040Z,23.2
2018-09-04T11:32:50.312Z,23.2
2018-09-04T11:34:49.804Z,23.2
2018-09-04T11:36:50.005Z,23.4
2018-09-04T11:38:49.992Z,23.4
2018-09-04T11:40:49.965Z,23.6
2018-09-04T11:42:50.062Z,23.6
2018-09-04T11:44:50.090Z,23.6
2018-09-04T11:46:50.479Z,23.6
2018-09-04T11:48:50.419Z,23.8
2018-09-04T11:50:50.419Z,23.8
2018-09-04T11:52:50.396Z,23.8
2018-09-04T11:54:50.518Z,23.9
2018-09-04T11:56:49.853Z,23.9
2018-09-04T11:58:49.943Z,24.0
2018-09-04T12:00:50.056Z,24.0
2018-09-04T12:02:50.110Z,24.0
2018-09-04T12:04:50.413Z,24.0
2018-09-04T12:06:50.562Z,24.1
2018-09-04T12:08:50.628Z,24.1
2018-09-04T12:10:50.695Z,24.1
2018-09-04T12:12:50.496Z,24.1
2018-09-04T12:14:50.659Z,24.2
2018-09-04T12:16:49.867Z,24.2
2018-09-04T12:18:50.015Z,24.2
2018-09-04T12:20:50.600Z,24.2
2018-09-04T12:22:49.864Z,24.2
2018-09-04T12:24:50.241Z,24.3
2018-09-04T12:26:50.514Z,24.3
2018-09-04T12:28:50.481Z,24.3
2018-09-04T12:30:50.576Z,24.4
2018-09-04T12:32:50.629Z,24.4
2018-09-04T12:36:49.740Z,24.6
2018-09-04T12:38:49.726Z,24.6
2018-09-04T12:40:49.746Z,24.6
2018-09-04T12:42:50.656Z,24.7
2018-09-04T12:44:50.836Z,24.8
2018-09-04T12:46:50.286Z,24.8
2018-09-04T12:48:50.374Z,24.8
2018-09-04T12:50:50.323Z,24.8
2018-09-04T12:52:50.250Z,24.8
2018-09-04T12:54:50.592Z,24.9
2018-09-04T12:56:49.808Z,24.8
2018-09-04T12:58:49.816Z,24.8
2018-09-04T13:00:49.885Z,24.8
2018-09-04T13:02:49.866Z,24.8
2018-09-04T13:04:50.263Z,24.7
2018-09-04T13:06:50.465Z,24.7
2018-09-04T13:08:50.500Z,24.7
2018-09-04T13:10:50.496Z,24.8
2018-09-04T13:12:50.470Z,24.9
2018-09-04T13:14:50.488Z,25.0
2018-09-04T13:16:50.618Z,25.0
2018-09-04T13:18:50.629Z,25.1
2018-09-04T13:20:49.721Z,25.3
2018-09-04T13:22:50.070Z,25.4
2018-09-04T13:24:50.026Z,25.7
2018-09-04T13:26:50.309Z,25.8
2018-09-04T13:28:50.413Z,25.8
2018-09-04T13:30:50.345Z,26.0
2018-09-04T13:32:50.388Z,26.0
2018-09-04T13:34:49.701Z,26.0
2018-09-04T13:36:49.897Z,26.1
2018-09-04T13:38:49.981Z,26.2
2018-09-04T13:40:49.908Z,26.2
2018-09-04T13:42:49.776Z,26.2
2018-09-04T13:44:49.718Z,26.2
2018-09-04T13:46:49.996Z,26.2
2018-09-04T13:48:49.909Z,26.2
2018-09-04T13:50:49.917Z,26.2
2018-09-04T13:52:49.932Z,26.4
2018-09-04T13:54:50.047Z,26.4
2018-09-04T13:56:50.364Z,26.4
2018-09-04T13:58:50.323Z,26.4
2018-09-04T14:00:50.301Z,26.5
2018-09-04T14:02:50.321Z,26.5
2018-09-04T14:04:50.644Z,26.5
2018-09-04T14:06:49.898Z,26.6
2018-09-04T14:08:49.951Z,26.6
2018-09-04T14:10:49.942Z,26.6
2018-09-04T14:12:49.988Z,26.5
2018-09-04T14:14:49.959Z,26.5
2018-09-04T14:16:50.341Z,26.5
2018-09-04T14:18:50.400Z,26.4
2018-09-04T14:20:50.547Z,26.3
2018-09-04T14:22:50.568Z,26.2
2018-09-04T14:24:50.619Z,26.2
2018-09-04T14:26:49.871Z,26.3
2018-09-04T14:29:07.530Z,26.3
2018-09-04T14:30:50.952Z,26.3
2018-09-04T14:32:50.180Z,26.3
2018-09-04T14:34:50.509Z,26.3
2018-09-04T14:36:51.897Z,26.3
2018-09-04T14:38:50.229Z,26.3
2018-09-04T14:40:50.166Z,26.3
2018-09-04T14:42:50.373Z,26.3
2018-09-04T14:44:50.629Z,26.3
2018-09-04T14:46:49.897Z,26.3
2018-09-04T14:48:49.991Z,26.4
2018-09-04T14:50:50.146Z,26.4
2018-09-04T14:52:50.146Z,26.4
2018-09-04T14:54:50.187Z,26.4
2018-09-04T14:56:50.582Z,26.4
2018-09-04T14:58:50.659Z,26.4
2018-09-04T15:00:50.707Z,26.4
2018-09-04T15:02:50.667Z,26.4
2018-09-04T15:04:50.100Z,26.4
2018-09-04T15:06:50.371Z,26.4
2018-09-04T15:08:50.344Z,26.4
2018-09-04T15:10:50.370Z,26.4
2018-09-04T15:12:50.305Z,26.4
2018-09-04T15:14:50.286Z,26.4
2018-09-04T15:16:50.379Z,26.4
2018-09-04T15:18:50.666Z,26.4
2018-09-04T15:20:49.806Z,26.4
2018-09-04T15:22:49.846Z,26.4
2018-09-04T15:24:49.951Z,26.4
2018-09-04T15:26:50.070Z,26.4
2018-09-04T15:28:49.996Z,26.4
2018-09-04T15:30:49.966Z,26.3
2018-09-04T15:32:49.974Z,26.2
2018-09-04T15:34:50.289Z,26.2
2018-09-04T15:36:50.594Z,26.1
2018-09-04T15:38:50.685Z,26.1
2018-09-04T15:40:49.732Z,26.0
2018-09-04T15:42:50.133Z,25.9
2018-09-04T15:44:50.259Z,25.8
2018-09-04T15:46:50.546Z,25.6
2018-09-04T15:48:50.574Z,25.6
2018-09-04T15:50:50.681Z,25.6
2018-09-04T15:52:50.647Z,25.4
2018-09-04T15:54:49.883Z,25.2
2018-09-04T15:56:50.611Z,25.2
2018-09-04T15:58:49.838Z,25.1
2018-09-04T16:00:50.035Z,25.0
2018-09-04T16:02:50.025Z,24.9
2018-09-04T16:04:50.289Z,24.8
2018-09-04T16:06:50.469Z,24.8
2018-09-04T16:08:50.507Z,24.73
2018-09-04T16:10:50.476Z,24.6
2018-09-04T16:12:50.516Z,24.59
2018-09-04T16:14:50.496Z,24.5
2018-09-04T16:16:49.703Z,24.39
2018-09-04T16:18:49.715Z,24.24
2018-09-04T16:20:49.716Z,24.17
2018-09-04T16:22:49.864Z,24.10
2018-09-04T16:24:49.859Z,24.04
2018-09-04T16:26:50.045Z,23.99
2018-09-04T16:28:49.970Z,23.94
2018-09-04T16:30:49.926Z,23.88
2018-09-04T16:32:49.910Z,23.85
2018-09-04T16:34:51.033Z,23.79
2018-09-04T16:36:50.438Z,23.71
2018-09-04T16:38:50.399Z,23.67
2018-09-04T16:40:50.380Z,23.58
2018-09-04T16:42:50.351Z,23.58
2018-09-04T16:44:50.279Z,23.41
2018-09-04T16:46:50.469Z,23.38
2018-09-04T16:48:50.628Z,23.34
2018-09-04T16:50:50.603Z,23.29
2018-09-04T16:52:50.578Z,23.24
2018-09-04T16:54:50.588Z,23.16
2018-09-04T16:56:49.985Z,23.08
2018-09-04T16:58:50.306Z,22.96
2018-09-04T17:00:50.289Z,22.89
2018-09-04T17:02:50.241Z,22.75
2018-09-04T17:04:50.660Z,22.64
2018-09-04T17:06:49.852Z,22.58
2018-09-04T17:08:49.924Z,22.50
2018-09-04T17:10:49.915Z,22.41
2018-09-04T17:12:50.246Z,22.30
2018-09-04T17:14:50.201Z,22.30
2018-09-04T17:16:50.443Z,22.08
2018-09-04T17:18:50.424Z,21.98
2018-09-04T17:20:50.382Z,21.87
2018-09-04T17:22:50.419Z,21.78
2018-09-04T17:24:50.370Z,21.72
2018-09-04T17:26:50.632Z,21.51
2018-09-04T17:28:50.601Z,21.41
2018-09-04T17:30:50.584Z,21.35
2018-09-04T17:32:50.491Z,21.21
2018-09-04T17:34:49.760Z,21.11
2018-09-04T17:36:49.913Z,21.09
2018-09-04T17:38:49.949Z,20.96
2018-09-04T17:40:49.989Z,20.90
2018-09-04T17:42:50.109Z,20.90
2018-09-04T17:44:50.157Z,20.85
2018-09-04T17:46:50.343Z,20.86
2018-09-04T17:48:50.376Z,20.85
2018-09-04T17:50:50.325Z,20.83
2018-09-04T17:52:50.355Z,20.85
2018-09-04T17:54:50.615Z,20.86
2018-09-04T17:56:49.877Z,20.84
2018-09-04T17:58:49.869Z,20.84
2018-09-04T18:00:50.164Z,20.77
2018-09-04T18:02:50.133Z,20.73
2018-09-04T18:04:50.320Z,20.70
2018-09-04T18:06:50.495Z,20.70
2018-09-04T18:08:50.489Z,20.70
2018-09-04T18:10:50.443Z,20.68
2018-09-04T18:12:50.493Z,20.72
2018-09-04T18:14:50.520Z,20.74
2018-09-04T18:16:49.786Z,20.78
2018-09-04T18:18:49.748Z,20.79
2018-09-04T18:20:49.730Z,20.79
2018-09-04T18:22:49.873Z,20.76
2018-09-04T18:24:49.856Z,20.71
2018-09-04T18:26:50.078Z,20.69
2018-09-04T18:28:50.245Z,20.67
2018-09-04T18:30:50.333Z,20.66
2018-09-04T18:32:50.376Z,20.67
2018-09-04T18:34:49.787Z,20.67
2018-09-04T18:36:50.030Z,20.68
2018-09-04T18:38:50.039Z,20.67
2018-09-04T18:40:49.993Z,20.66
2018-09-04T18:42:49.950Z,20.64
2018-09-04T18:44:49.923Z,20.61
2018-09-04T18:46:50.102Z,20.58
2018-09-04T18:48:50.649Z,20.58
2018-09-04T18:50:49.844Z,20.55
2018-09-04T18:52:50.163Z,20.52
2018-09-04T18:54:50.218Z,20.47
2018-09-04T18:56:50.363Z,20.45
2018-09-04T18:58:50.364Z,20.38
2018-09-04T19:00:50.378Z,20.35
2018-09-04T19:02:50.566Z,20.28
2018-09-04T19:04:49.939Z,20.28
2018-09-04T19:06:50.372Z,20.21
2018-09-04T19:08:50.588Z,20.18
2018-09-04T19:10:50.549Z,20.15
2018-09-04T19:12:50.553Z,20.10
2018-09-04T19:14:50.563Z,20.09
2018-09-04T19:16:49.796Z,20.07
2018-09-04T19:18:49.879Z,20.07
2018-09-04T19:20:49.845Z,20.09
2018-09-04T19:22:49.928Z,20.09
2018-09-04T19:24:49.901Z,20.10
2018-09-04T19:26:50.174Z,20.11
2018-09-04T19:28:50.111Z,20.10
2018-09-04T19:30:50.067Z,20.07
2018-09-04T19:32:50.091Z,20.06
2018-09-04T19:34:50.390Z,20.02
2018-09-04T19:36:50.537Z,19.98
2018-09-04T19:38:50.639Z,19.93
2018-09-04T19:40:49.720Z,19.88
2018-09-04T19:42:49.910Z,19.80
2018-09-04T19:44:49.937Z,19.71
2018-09-04T19:46:50.129Z,19.65
2018-09-04T19:48:50.064Z,19.58
2018-09-04T19:50:50.053Z,19.55
2018-09-04T19:52:50.029Z,19.54
2018-09-04T19:54:50.050Z,19.53
2018-09-04T19:56:50.179Z,19.50
2018-09-04T19:58:50.172Z,19.36
2018-09-04T20:00:50.538Z,19.36
2018-09-04T20:02:49.852Z,19.22
2018-09-04T20:04:50.165Z,19.22
2018-09-04T20:06:50.308Z,19.10
2018-09-04T20:08:50.413Z,19.05
2018-09-04T20:10:50.480Z,18.97
2018-09-04T20:12:50.520Z,18.92
2018-09-04T20:14:50.522Z,18.89
2018-09-04T20:16:49.724Z,18.88
2018-09-04T20:18:49.799Z,18.87
2018-09-04T20:20:49.772Z,18.87
2018-09-04T20:22:49.851Z,18.82
2018-09-04T20:24:49.922Z,18.78
2018-09-04T20:26:50.129Z,18.65
2018-09-04T20:28:50.179Z,18.55
2018-09-04T20:30:50.156Z,18.50
2018-09-04T20:32:50.185Z,18.43
2018-09-04T20:34:50.631Z,18.38
2018-09-04T20:36:49.901Z,18.32
2018-09-04T20:38:49.937Z,18.32
2018-09-04T20:40:49.964Z,18.21
2018-09-04T20:42:50.035Z,18.18
2018-09-04T20:44:50.095Z,18.13
2018-09-04T20:46:50.346Z,18.08
2018-09-04T20:48:50.433Z,18.01
2018-09-04T20:50:50.408Z,17.93
2018-09-04T20:52:50.538Z,17.91
2018-09-04T20:54:50.545Z,17.80
2018-09-04T20:56:49.738Z,17.74
2018-09-04T20:58:49.802Z,17.69
2018-09-04T21:00:49.797Z,17.61
2018-09-04T21:02:49.750Z,17.58
2018-09-04T21:04:50.035Z,17.54
2018-09-04T21:06:50.209Z,17.51
2018-09-04T21:08:50.305Z,17.45
2018-09-04T21:10:50.284Z,17.45
2018-09-04T21:12:50.349Z,17.36
2018-09-04T21:14:50.303Z,17.31
2018-09-04T21:16:50.514Z,17.30
2018-09-04T21:18:50.545Z,17.26
2018-09-04T21:20:50.621Z,17.23
2018-09-04T21:22:49.705Z,17.15
2018-09-04T21:24:49.690Z,17.15
2018-09-04T21:26:49.860Z,17.09
2018-09-04T21:28:49.924Z,17.06
2018-09-04T21:30:49.912Z,17.04
2018-09-04T21:32:49.921Z,17.00
2018-09-04T21:34:50.191Z,16.96
2018-09-04T21:36:50.510Z,16.92
2018-09-04T21:38:49.718Z,16.90
2018-09-04T21:40:49.791Z,16.85
2018-09-04T21:42:50.019Z,16.82
2018-09-04T21:44:50.031Z,16.76
2018-09-04T21:46:50.395Z,16.73
2018-09-04T21:48:50.366Z,16.69
2018-09-04T21:50:50.324Z,16.65
2018-09-04T21:52:50.453Z,16.65
2018-09-04T21:54:50.356Z,16.64
2018-09-04T21:56:49.713Z,16.61
2018-09-04T21:58:49.822Z,16.56
2018-09-04T22:00:49.885Z,16.51
2018-09-04T22:02:49.894Z,16.49
2018-09-04T22:04:50.432Z,16.47
2018-09-04T22:06:50.680Z,16.44
2018-09-04T22:08:50.697Z,16.39
2018-09-04T22:10:49.721Z,16.39
2018-09-04T22:12:49.716Z,16.30
2018-09-04T22:14:49.780Z,16.26
2018-09-04T22:16:49.952Z,16.24
2018-09-04T22:18:50.004Z,16.21
2018-09-04T22:20:49.974Z,16.17
2018-09-04T22:22:50.034Z,16.13
2018-09-04T22:24:50.018Z,16.09
2018-09-04T22:26:50.200Z,16.07
2018-09-04T22:28:50.240Z,16.01
2018-09-04T22:30:50.188Z,15.99
2018-09-04T22:32:50.306Z,15.97
2018-09-04T22:34:50.641Z,15.96
2018-09-04T22:36:49.818Z,15.93
2018-09-04T22:38:49.871Z,15.89
2018-09-04T22:40:49.856Z,15.86
2018-09-04T22:42:49.967Z,15.81
2018-09-04T22:44:49.970Z,15.79
2018-09-04T22:46:50.638Z,15.78
2018-09-04T22:48:49.691Z,15.76
2018-09-04T22:50:49.772Z,15.73
2018-09-04T22:52:49.762Z,15.71
2018-09-04T22:54:49.835Z,15.67
2018-09-04T22:56:50.023Z,15.63
2018-09-04T22:58:50.079Z,15.59
2018-09-04T23:00:50.201Z,15.55
2018-09-04T23:02:50.272Z,15.52
2018-09-04T23:04:50.568Z,15.48
2018-09-04T23:06:50.653Z,15.44
2018-09-04T23:08:50.690Z,15.39
2018-09-04T23:10:49.706Z,15.35
2018-09-04T23:12:49.930Z,15.35
2018-09-04T23:14:49.962Z,15.31
2018-09-04T23:16:50.128Z,15.29
2018-09-04T23:18:50.174Z,15.27
2018-09-04T23:20:50.176Z,15.25
2018-09-04T23:22:50.147Z,15.22
2018-09-04T23:24:50.180Z,15.20
2018-09-04T23:26:50.496Z,15.16
2018-09-04T23:28:50.465Z,15.14
2018-09-04T23:30:50.537Z,15.14
2018-09-04T23:32:50.579Z,15.11
2018-09-04T23:34:49.997Z,15.12
2018-09-04T23:36:50.228Z,15.11
2018-09-04T23:38:50.200Z,15.08
2018-09-04T23:40:50.160Z,15.06
2018-09-04T23:42:50.189Z,14.99
2018-09-04T23:44:50.173Z,14.98
2018-09-04T23:46:50.557Z,14.97
2018-09-04T23:48:50.538Z,14.96
2018-09-04T23:50:50.640Z,14.93
2018-09-04T23:52:49.741Z,14.91
2018-09-04T23:54:49.814Z,14.90
2018-09-04T23:56:50.106Z,14.87
2018-09-04T23:58:50.118Z,14.86
